Time;durP1;ratioP1;P1;durP2;ratioP2;P2;SDS_P1;SDS_P2;PMS_P1;PMS_P2;Temp;Humidity;BMP_temperature;BMP_pressure;BME280_temperature;BME280_humidity;BME280_pressure;Samples;Min_cycle;Max_cycle;Signal;HPM_P1;HPM_P2
2024/03/22 00:01:43;;;;;;;14.30;11.63;;;9.50;67.70;;;;;;5013558;28;20227;-59
2024/03/22 00:04:09;;;;;;;14.40;11.60;;;9.50;72.00;;;;;;4998384;28;20207;-61
2024/03/22 00:06:36;;;;;;;13.43;11.90;;;9.50;73.50;;;;;;5004963;28;20689;-61
2024/03/22 00:09:01;;;;;;;14.50;13.00;;;9.50;74.50;;;;;;5015379;28;20211;-60
2024/03/22 00:11:28;;;;;;;13.43;11.87;;;9.50;74.90;;;;;;5015585;28;20250;-61
2024/03/22 00:13:53;;;;;;;13.80;11.63;;;9.50;74.50;;;;;;5015071;28;20702;-60
2024/03/22 00:16:20;;;;;;;14.03;11.67;;;9.50;75.70;;;;;;5010819;28;20208;-61
2024/03/22 00:18:45;;;;;;;12.83;11.50;;;9.40;77.70;;;;;;5006141;28;20207;-61
2024/03/22 00:21:13;;;;;;;13.67;12.37;;;;;;;;;;5003549;28;20244;-60
2024/03/22 00:23:38;;;;;;;12.40;11.17;;;9.30;80.60;;;;;;5012103;28;20212;-60
2024/03/22 00:26:05;;;;;;;12.63;11.33;;;9.40;84.90;;;;;;5007397;28;20637;-60
2024/03/22 00:28:30;;;;;;;14.17;12.67;;;9.30;82.30;;;;;;5010658;28;20214;-60
2024/03/22 00:30:57;;;;;;;11.93;10.70;;;9.30;79.80;;;;;;5008191;28;20207;-60
2024/03/22 00:33:22;;;;;;;13.83;11.47;;;9.40;80.30;;;;;;5004306;28;20232;-59
2024/03/22 00:35:49;;;;;;;14.47;11.53;;;9.30;82.00;;;;;;5009249;28;20207;-60
2024/03/22 00:38:14;;;;;;;16.77;12.67;;;9.30;80.80;;;;;;5005591;28;20210;-60
2024/03/22 00:40:41;;;;;;;14.60;11.80;;;9.30;80.70;;;;;;5011978;28;20362;-60
2024/03/22 00:43:06;;;;;;;13.93;12.13;;;9.40;80.90;;;;;;5002514;28;20231;-60
2024/03/22 00:45:33;;;;;;;12.57;11.03;;;9.30;81.00;;;;;;5010379;28;20211;-60
2024/03/22 00:47:59;;;;;;;12.33;11.13;;;9.40;80.80;;;;;;5006465;28;20573;-60
2024/03/22 00:50:25;;;;;;;15.67;11.73;;;9.30;80.50;;;;;;5014999;28;20203;-60
2024/03/22 00:52:51;;;;;;;14.00;11.73;;;9.30;80.20;;;;;;5004433;28;20235;-59
2024/03/22 00:55:18;;;;;;;13.70;12.23;;;9.40;80.30;;;;;;5007265;28;20667;-60
2024/03/22 00:57:43;;;;;;;12.27;10.93;;;9.30;79.90;;;;;;5013861;28;20305;-60
2024/03/22 01:00:10;;;;;;;13.67;11.87;;;9.30;80.50;;;;;;5014456;28;20332;-60
2024/03/22 01:02:36;;;;;;;12.50;11.20;;;9.30;80.00;;;;;;5016427;28;20220;-60
2024/03/22 01:05:02;;;;;;;14.50;12.77;;;9.20;80.40;;;;;;5008018;28;20278;-60
2024/03/22 01:07:28;;;;;;;12.63;11.13;;;9.30;79.90;;;;;;5009447;28;20214;-60
2024/03/22 01:09:54;;;;;;;13.63;11.20;;;9.20;80.00;;;;;;5005858;28;20215;-60
2024/03/22 01:12:20;;;;;;;13.60;12.20;;;9.30;79.50;;;;;;5011544;28;20613;-60
2024/03/22 01:14:46;;;;;;;15.53;11.50;;;9.30;80.30;;;;;;5002893;28;20454;-60
2024/03/22 01:17:12;;;;;;;13.43;11.53;;;9.30;79.40;;;;;;5016222;28;20218;-60
2024/03/22 01:19:39;;;;;;;13.47;11.70;;;9.30;79.50;;;;;;5016783;28;20211;-60
2024/03/22 01:22:04;;;;;;;13.13;11.70;;;9.30;79.10;;;;;;5005529;28;20242;-60
2024/03/22 01:24:31;;;;;;;14.83;12.37;;;9.40;79.20;;;;;;5005264;28;20556;-60
2024/03/22 01:26:56;;;;;;;14.17;12.30;;;9.30;79.20;;;;;;5006738;28;20216;-60
2024/03/22 01:29:23;;;;;;;14.63;12.67;;;9.20;79.50;;;;;;5007903;28;20210;-60
2024/03/22 01:31:48;;;;;;;11.77;10.57;;;9.30;79.90;;;;;;5008380;28;20224;-60
2024/03/22 01:34:15;;;;;;;13.47;11.97;;;9.30;80.00;;;;;;5014644;28;20733;-60
2024/03/22 01:36:40;;;;;;;13.30;11.90;;;9.20;80.20;;;;;;5016795;28;20337;-60
2024/03/22 01:39:07;;;;;;;14.63;11.87;;;9.20;80.40;;;;;;5016742;28;20699;-60
2024/03/22 01:41:33;;;;;;;12.33;11.03;;;9.20;80.60;;;;;;5017462;28;20306;-60
2024/03/22 01:44:00;;;;;;;13.07;11.67;;;9.20;80.90;;;;;;5009787;28;20192;-60
2024/03/22 01:46:25;;;;;;;13.70;11.77;;;9.20;80.50;;;;;;5010384;28;20235;-60
2024/03/22 01:48:52;;;;;;;13.93;11.77;;;9.20;80.30;;;;;;5001559;28;20640;-60
2024/03/22 01:51:17;;;;;;;13.10;11.73;;;9.10;80.60;;;;;;5010377;28;20200;-60
2024/03/22 01:53:44;;;;;;;13.80;10.80;;;9.10;80.20;;;;;;5008665;28;20231;-60
2024/03/22 01:56:10;;;;;;;13.40;12.00;;;9.00;80.20;;;;;;5005261;28;20204;-60
2024/03/22 01:58:36;;;;;;;16.17;12.00;;;9.10;79.60;;;;;;5013082;28;20216;-60
2024/03/22 02:01:03;;;;;;;14.03;11.43;;;9.20;79.20;;;;;;5004251;28;20210;-60
2024/03/22 02:03:28;;;;;;;14.10;11.90;;;9.20;79.80;;;;;;5009022;28;20253;-60
2024/03/22 02:05:55;;;;;;;13.13;11.83;;;9.20;79.80;;;;;;5006195;28;20203;-60
2024/03/22 02:08:20;;;;;;;12.93;11.13;;;9.20;79.70;;;;;;5006071;28;20593;-60
2024/03/22 02:10:47;;;;;;;14.37;12.07;;;9.20;79.40;;;;;;5011998;28;20207;-60
2024/03/22 02:13:12;;;;;;;14.30;11.90;;;9.00;80.00;;;;;;5014225;28;20220;-58
2024/03/22 02:15:39;;;;;;;14.97;12.43;;;9.10;80.40;;;;;;5014858;28;20254;-60
2024/03/22 02:18:04;;;;;;;13.83;12.37;;;9.00;80.80;;;;;;5014747;28;20744;-60
2024/03/22 02:20:31;;;;;;;16.00;12.50;;;9.10;81.10;;;;;;5008283;28;20204;-59
2024/03/22 02:22:57;;;;;;;14.03;12.27;;;9.00;82.70;;;;;;5011457;28;20595;-60
2024/03/22 02:25:23;;;;;;;14.23;12.67;;;8.90;83.80;;;;;;4999976;28;20211;-60
2024/03/22 02:27:50;;;;;;;14.43;12.37;;;8.90;84.20;;;;;;5006160;28;20204;-60
2024/03/22 02:30:16;;;;;;;15.23;12.93;;;9.00;83.70;;;;;;5006790;28;20226;-59
2024/03/22 02:32:42;;;;;;;14.27;12.77;;;9.00;83.40;;;;;;5005868;28;20223;-60
2024/03/22 02:35:08;;;;;;;14.30;12.40;;;9.00;83.70;;;;;;5006175;28;20210;-59
2024/03/22 02:37:34;;;;;;;15.33;12.50;;;9.00;83.80;;;;;;5007402;28;20234;-59
2024/03/22 02:40:01;;;;;;;14.47;12.53;;;8.90;83.50;;;;;;5011404;28;20831;-60
2024/03/22 02:42:26;;;;;;;15.30;12.70;;;8.90;83.60;;;;;;5001617;28;20238;-60
2024/03/22 02:44:53;;;;;;;14.73;12.17;;;8.90;84.00;;;;;;5000794;28;20207;-60
2024/03/22 02:47:20;;;;;;;15.40;13.03;;;8.90;83.60;;;;;;5007385;28;20215;-60
2024/03/22 02:49:45;;;;;;;14.00;12.50;;;8.90;83.70;;;;;;5009578;28;20669;-60
2024/03/22 02:52:12;;;;;;;14.57;13.07;;;8.90;84.00;;;;;;5007136;28;20240;-60
2024/03/22 02:54:37;;;;;;;15.33;12.77;;;8.90;84.00;;;;;;5007680;28;20258;-60
2024/03/22 02:57:04;;;;;;;15.20;13.23;;;8.80;84.70;;;;;;5009708;28;20867;-60
2024/03/22 02:59:29;;;;;;;15.80;12.93;;;8.80;85.00;;;;;;5006073;28;20551;-58
2024/03/22 03:01:56;;;;;;;14.77;12.10;;;8.80;86.00;;;;;;5007769;28;20311;-59
2024/03/22 03:04:21;;;;;;;14.33;11.83;;;8.80;86.00;;;;;;5328791;23;20252;-60
2024/03/22 03:06:48;;;;;;;15.10;12.70;;;8.90;86.60;;;;;;4982924;28;20666;-58
2024/03/22 03:09:14;;;;;;;15.53;13.53;;;8.80;86.50;;;;;;4988837;28;20323;-59
2024/03/22 03:11:41;;;;;;;16.30;13.33;;;8.80;87.20;;;;;;4989156;28;20227;-62
2024/03/22 03:14:06;;;;;;;15.77;13.70;;;8.70;87.50;;;;;;4993769;28;20223;-60
2024/03/22 03:16:33;;;;;;;15.43;13.47;;;8.70;86.50;;;;;;4994871;28;20209;-60
2024/03/22 03:18:59;;;;;;;17.73;12.77;;;8.60;87.10;;;;;;4995536;28;20214;-60
2024/03/22 03:21:25;;;;;;;16.60;13.73;;;8.60;87.20;;;;;;4990465;28;20306;-60
2024/03/22 03:23:51;;;;;;;14.30;12.57;;;8.70;86.90;;;;;;4989414;28;20266;-60
2024/03/22 03:26:18;;;;;;;15.93;13.40;;;8.60;87.10;;;;;;4995107;28;20588;-60
2024/03/22 03:28:43;;;;;;;15.13;12.47;;;8.60;87.10;;;;;;4995552;28;20607;-61
2024/03/22 03:31:10;;;;;;;16.03;12.87;;;8.60;85.70;;;;;;4995476;28;20208;-60
2024/03/22 03:33:35;;;;;;;16.67;12.50;;;8.70;85.00;;;;;;4996089;28;20224;-60
2024/03/22 03:36:02;;;;;;;13.60;11.43;;;8.70;85.40;;;;;;4997323;28;20310;-60
2024/03/22 03:38:28;;;;;;;13.23;11.37;;;8.70;85.50;;;;;;4993485;28;20227;-61
2024/03/22 03:40:54;;;;;;;15.13;12.27;;;8.70;85.00;;;;;;4994896;28;20211;-61
2024/03/22 03:43:20;;;;;;;15.37;12.27;;;8.70;84.90;;;;;;4994679;28;20226;-60
2024/03/22 03:45:46;;;;;;;14.30;12.80;;;8.70;84.80;;;;;;4995413;28;20279;-60
2024/03/22 03:48:12;;;;;;;15.60;12.70;;;8.60;85.40;;;;;;4993094;28;20219;-60
2024/03/22 03:50:39;;;;;;;14.67;12.07;;;8.60;85.20;;;;;;4995335;28;20590;-61
2024/03/22 03:53:05;;;;;;;14.77;11.80;;;8.60;84.80;;;;;;4992353;28;20238;-61
2024/03/22 03:55:32;;;;;;;14.53;12.90;;;8.60;83.70;;;;;;4989759;28;20674;-59
2024/03/22 03:57:57;;;;;;;15.90;11.80;;;8.60;80.20;;;;;;4995042;28;20641;-60
2024/03/22 04:00:24;;;;;;;16.23;12.43;;;8.60;79.00;;;;;;4994235;28;20207;-60
2024/03/22 04:02:49;;;;;;;14.40;12.70;;;8.50;78.50;;;;;;4983177;28;20238;-59
2024/03/22 04:05:16;;;;;;;14.40;11.77;;;8.50;77.90;;;;;;4993430;28;20218;-61
2024/03/22 04:07:42;;;;;;;15.27;12.63;;;8.50;78.00;;;;;;4994479;28;20225;-60
2024/03/22 04:10:09;;;;;;;14.70;11.93;;;8.50;78.40;;;;;;4988655;28;20207;-59
2024/03/22 04:12:34;;;;;;;14.33;11.80;;;8.50;77.80;;;;;;4994371;28;20600;-60
2024/03/22 04:15:01;;;;;;;13.40;11.97;;;8.50;77.30;;;;;;4993256;28;20227;-59
2024/03/22 04:17:26;;;;;;;13.83;12.43;;;8.50;77.00;;;;;;4994571;28;20230;-60
2024/03/22 04:19:53;;;;;;;14.33;12.60;;;8.50;77.60;;;;;;4987815;28;20584;-59
2024/03/22 04:22:19;;;;;;;14.40;12.10;;;8.30;77.70;;;;;;4984385;28;20238;-60
2024/03/22 04:24:45;;;;;;;14.43;12.90;;;8.40;78.10;;;;;;4994399;28;20200;-60
2024/03/22 04:27:11;;;;;;;15.50;12.93;;;8.50;78.20;;;;;;4994440;28;20581;-60
2024/03/22 04:29:37;;;;;;;16.47;12.47;;;8.50;78.30;;;;;;4994633;28;20203;-59
2024/03/22 04:32:03;;;;;;;18.20;13.70;;;8.40;79.40;;;;;;4994883;28;20232;-60
2024/03/22 04:34:29;;;;;;;14.77;12.73;;;8.40;80.30;;;;;;4994513;28;20230;-61
2024/03/22 04:36:56;;;;;;;17.00;13.30;;;8.50;80.10;;;;;;4990455;28;20210;-63
2024/03/22 04:39:24;;;;;;;14.80;12.83;;;8.50;80.60;;;;;;4990112;28;20254;-60
2024/03/22 04:41:50;;;;;;;15.97;13.47;;;8.50;81.20;;;;;;4991241;28;20230;-61
2024/03/22 04:44:17;;;;;;;16.67;13.10;;;8.40;81.50;;;;;;4986765;28;20205;-61
2024/03/22 04:46:42;;;;;;;14.43;12.67;;;8.40;81.80;;;;;;4985855;28;20223;-60
2024/03/22 04:49:09;;;;;;;15.30;13.17;;;8.50;81.70;;;;;;4993963;28;20205;-61
2024/03/22 04:51:35;;;;;;;16.93;13.77;;;8.50;81.80;;;;;;4993738;28;20232;-60
2024/03/22 04:54:01;;;;;;;13.53;12.13;;;8.30;82.10;;;;;;4993525;28;20230;-60
2024/03/22 04:56:28;;;;;;;14.93;12.97;;;8.40;81.90;;;;;;4984790;28;20266;-61
2024/03/22 04:58:55;;;;;;;15.27;12.57;;;8.40;81.50;;;;;;4993874;28;20208;-60
2024/03/22 05:01:23;;;;;;;14.90;12.60;;;8.40;81.70;;;;;;4991159;28;22016;-59
2024/03/22 05:03:49;;;;;;;16.63;13.90;;;8.50;81.50;;;;;;4990291;28;20203;-60
2024/03/22 05:06:15;;;;;;;15.10;13.57;;;8.50;81.90;;;;;;4986078;28;20245;-60
2024/03/22 05:08:41;;;;;;;14.73;12.27;;;8.40;82.50;;;;;;4993299;28;20215;-60
2024/03/22 05:11:08;;;;;;;13.60;11.93;;;8.50;82.50;;;;;;4987782;28;20211;-61
2024/03/22 05:13:33;;;;;;;14.97;11.87;;;8.50;82.60;;;;;;4990990;28;20234;-60
2024/03/22 05:16:00;;;;;;;15.27;12.63;;;8.50;82.90;;;;;;4991919;28;20626;-60
2024/03/22 05:18:25;;;;;;;12.93;11.63;;;8.60;81.30;;;;;;4987649;28;20218;-60
2024/03/22 05:20:52;;;;;;;14.63;11.97;;;8.60;79.90;;;;;;4988512;28;20200;-60
2024/03/22 05:23:18;;;;;;;13.00;11.67;;;8.60;79.10;;;;;;4992131;28;20718;-60
2024/03/22 05:25:44;;;;;;;13.77;11.27;;;8.60;78.90;;;;;;4992134;28;20208;-60
2024/03/22 05:28:10;;;;;;;12.50;11.30;;;8.70;77.90;;;;;;4985620;28;20211;-60
2024/03/22 05:30:36;;;;;;;16.93;11.87;;;8.70;78.50;;;;;;4981576;28;20671;-60
2024/03/22 05:33:02;;;;;;;15.50;11.90;;;8.70;78.30;;;;;;4990898;28;20242;-60
2024/03/22 05:35:28;;;;;;;13.17;11.40;;;8.70;77.60;;;;;;4992522;28;20589;-61
2024/03/22 05:37:54;;;;;;;12.70;11.33;;;8.90;77.20;;;;;;4992675;28;20207;-59
2024/03/22 05:40:21;;;;;;;14.87;11.27;;;8.80;77.10;;;;;;4991042;28;20203;-60
2024/03/22 05:42:46;;;;;;;13.30;10.93;;;8.80;77.50;;;;;;4992860;28;20235;-60
2024/03/22 05:45:13;;;;;;;14.30;11.17;;;8.90;77.50;;;;;;4992369;28;20208;-61
2024/03/22 05:47:38;;;;;;;11.50;10.30;;;8.90;77.40;;;;;;4986203;28;20222;-60
2024/03/22 05:50:06;;;;;;;11.80;10.40;;;8.90;77.70;;;;;;4991014;28;20211;-61
2024/03/22 05:52:32;;;;;;;11.27;10.07;;;8.90;77.50;;;;;;4990299;28;20682;-62
2024/03/22 05:54:58;;;;;;;12.37;10.70;;;8.90;77.50;;;;;;4976728;28;20228;-62
2024/03/22 05:57:24;;;;;;;12.17;10.67;;;8.90;77.40;;;;;;4994075;28;20306;-61
2024/03/22 05:59:50;;;;;;;12.73;10.40;;;8.90;77.40;;;;;;4993309;28;20274;-61
2024/03/22 06:02:17;;;;;;;11.70;10.50;;;8.90;78.00;;;;;;4993128;28;20231;-60
2024/03/22 06:04:42;;;;;;;11.87;9.67;;;8.90;78.00;;;;;;4989155;28;20203;-60
2024/03/22 06:07:10;;;;;;;11.93;10.37;;;8.90;77.90;;;;;;4998398;28;20222;-59
2024/03/22 06:09:37;;;;;;;11.47;10.27;;;8.90;77.10;;;;;;4983407;28;20213;-61
2024/03/22 06:12:03;;;;;;;11.47;10.00;;;9.00;77.00;;;;;;4992597;28;20226;-60
2024/03/22 06:14:29;;;;;;;11.30;9.97;;;9.00;77.20;;;;;;4991200;28;20295;-60
2024/03/22 06:16:55;;;;;;;10.90;9.73;;;9.00;77.50;;;;;;4990525;28;20719;-60
2024/03/22 06:19:21;;;;;;;12.77;10.77;;;8.90;77.40;;;;;;4992186;28;20299;-60
2024/03/22 06:21:48;;;;;;;11.27;9.97;;;8.90;77.70;;;;;;4991793;28;20258;-59
2024/03/22 06:24:13;;;;;;;11.27;9.90;;;8.90;77.90;;;;;;4989181;28;20277;-60
2024/03/22 06:26:40;;;;;;;12.30;9.80;;;9.00;77.10;;;;;;4979806;28;20204;-60
2024/03/22 06:29:05;;;;;;;12.90;10.53;;;9.00;77.70;;;;;;4991950;28;20281;-59
2024/03/22 06:31:32;;;;;;;11.30;10.00;;;9.00;77.70;;;;;;4986098;28;20601;-59
2024/03/22 06:34:01;;;;;;;10.40;9.37;;;9.20;77.10;;;;;;4988879;28;20373;-60
2024/03/22 06:36:28;;;;;;;11.67;9.90;;;9.60;75.80;;;;;;4990021;28;20655;-59
2024/03/22 06:38:54;;;;;;;10.57;9.13;;;9.80;75.20;;;;;;4987614;28;20220;-60
2024/03/22 06:41:20;;;;;;;11.37;9.27;;;10.00;73.30;;;;;;4992233;28;20623;-60
2024/03/22 06:43:46;;;;;;;9.27;8.33;;;10.20;73.30;;;;;;4990971;28;20221;-60
2024/03/22 06:46:13;;;;;;;11.37;9.73;;;10.30;73.40;;;;;;4991858;28;20256;-60
2024/03/22 06:48:38;;;;;;;11.20;9.17;;;10.50;72.70;;;;;;4991255;28;20216;-60
2024/03/22 06:51:05;;;;;;;9.93;8.57;;;10.60;72.30;;;;;;4983630;28;20206;-60
2024/03/22 06:53:31;;;;;;;10.33;8.80;;;10.80;72.30;;;;;;4983282;28;20222;-60
2024/03/22 06:55:57;;;;;;;10.03;8.57;;;10.70;71.20;;;;;;4989827;28;20210;-60
2024/03/22 06:58:23;;;;;;;9.03;8.13;;;10.90;71.00;;;;;;4992104;28;20216;-60
2024/03/22 07:00:50;;;;;;;10.67;8.33;;;11.00;71.20;;;;;;4984598;28;20211;-60
2024/03/22 07:03:17;;;;;;;9.53;8.53;;;11.00;71.10;;;;;;4982060;28;20223;-60
2024/03/22 07:05:43;;;;;;;8.87;8.03;;;11.10;70.70;;;;;;4983122;28;20310;-60
2024/03/22 07:08:09;;;;;;;9.87;8.17;;;11.20;69.70;;;;;;4988100;28;20211;-58
2024/03/22 07:10:35;;;;;;;11.63;8.17;;;11.20;70.10;;;;;;4981380;28;20210;-60
2024/03/22 07:13:01;;;;;;;8.47;7.57;;;11.30;69.70;;;;;;4984715;28;20631;-61
2024/03/22 07:15:29;;;;;;;8.93;7.93;;;11.40;69.80;;;;;;4984868;28;20233;-59
2024/03/22 07:17:55;;;;;;;8.70;7.80;;;11.50;69.90;;;;;;4992155;28;20560;-59
2024/03/22 07:20:22;;;;;;;9.13;7.97;;;11.60;70.30;;;;;;4987292;28;20196;-59
2024/03/22 07:22:48;;;;;;;7.83;7.03;;;11.80;69.60;;;;;;4976187;28;20390;-58
2024/03/22 07:25:14;;;;;;;8.07;7.27;;;11.80;70.60;;;;;;4977717;28;20571;-58
2024/03/22 07:27:40;;;;;;;9.97;7.43;;;12.00;69.80;;;;;;4974751;28;20684;-59
2024/03/22 07:30:06;;;;;;;9.07;7.40;;;12.10;69.00;;;;;;4982562;28;20251;-60
2024/03/22 07:32:32;;;;;;;8.13;7.33;;;12.10;69.50;;;;;;4979850;28;20316;-65
2024/03/22 07:34:58;;;;;;;7.87;7.07;;;11.90;69.80;;;;;;4964864;28;20674;-59
2024/03/22 07:37:24;;;;;;;8.17;7.37;;;11.70;70.00;;;;;;4979635;28;20212;-59
2024/03/22 07:39:51;;;;;;;11.40;7.77;;;11.70;70.80;;;;;;4991530;28;20207;-59
2024/03/22 07:42:17;;;;;;;9.33;7.43;;;11.60;71.80;;;;;;4987534;28;20600;-58
2024/03/22 07:44:43;;;;;;;9.23;7.10;;;11.50;72.80;;;;;;4978208;28;20309;-57
2024/03/22 07:47:09;;;;;;;8.70;7.37;;;11.50;72.40;;;;;;4987996;28;20302;-59
2024/03/22 07:49:36;;;;;;;8.30;6.77;;;11.60;73.90;;;;;;4987323;28;20290;-57
2024/03/22 07:52:03;;;;;;;9.63;7.77;;;11.70;73.90;;;;;;4992095;28;20262;-59
2024/03/22 07:54:29;;;;;;;11.73;7.67;;;11.80;75.10;;;;;;4991417;28;20235;-59
2024/03/22 07:56:56;;;;;;;10.03;7.57;;;12.00;74.10;;;;;;4983135;28;20209;-60
2024/03/22 07:59:21;;;;;;;8.27;7.47;;;12.00;74.80;;;;;;4986614;28;20254;-60
2024/03/22 08:01:48;;;;;;;7.67;6.97;;;12.00;76.10;;;;;;4976618;28;20514;-59
2024/03/22 08:04:14;;;;;;;8.23;7.23;;;12.10;76.90;;;;;;4977711;28;20207;-60
2024/03/22 08:06:41;;;;;;;6.97;6.27;;;12.20;76.10;;;;;;4960250;28;20212;-60
2024/03/22 08:09:07;;;;;;;7.47;6.37;;;12.20;77.50;;;;;;4979067;28;20212;-60
2024/03/22 08:11:34;;;;;;;7.77;6.47;;;12.40;75.20;;;;;;4970118;28;20224;-59
2024/03/22 08:14:02;;;;;;;7.77;6.97;;;12.60;75.00;;;;;;4980950;28;20240;-61
2024/03/22 08:16:29;;;;;;;9.37;7.23;;;12.80;73.40;;;;;;4977232;28;20484;-60
2024/03/22 08:18:55;;;;;;;7.50;6.73;;;;;;;;;;4989003;28;20209;-58
2024/03/22 08:21:22;;;;;;;7.40;6.60;;;13.40;92.00;;;;;;4986196;28;20321;-60
2024/03/22 08:23:47;;;;;;;8.13;7.17;;;13.70;80.30;;;;;;4985442;28;20206;-60
2024/03/22 08:26:14;;;;;;;7.97;6.80;;;13.90;80.90;;;;;;4994306;28;20227;-60
2024/03/22 08:28:39;;;;;;;6.30;5.77;;;14.10;65.30;;;;;;4986155;28;20209;-60
2024/03/22 08:31:06;;;;;;;6.60;6.00;;;14.40;61.20;;;;;;4976491;28;20214;-60
2024/03/22 08:33:31;;;;;;;6.80;6.10;;;14.50;65.50;;;;;;4976323;28;20683;-60
2024/03/22 08:35:58;;;;;;;8.00;5.53;;;14.70;86.50;;;;;;4975407;28;20205;-60
2024/03/22 08:38:24;;;;;;;6.67;5.87;;;14.80;74.10;;;;;;4980394;28;20214;-60
2024/03/22 08:40:50;;;;;;;7.77;5.37;;;14.70;89.90;;;;;;4988396;28;20214;-58
2024/03/22 08:43:16;;;;;;;8.07;5.70;;;14.90;73.80;;;;;;4993736;28;20230;-60
2024/03/22 08:45:43;;;;;;;5.93;5.33;;;15.20;61.90;;;;;;4985218;28;20198;-60
2024/03/22 08:48:08;;;;;;;6.23;5.63;;;15.50;72.60;;;;;;4987602;28;20207;-68
2024/03/22 08:50:35;;;;;;;6.23;5.67;;;15.40;67.60;;;;;;4992476;28;20218;-64
2024/03/22 08:53:03;;;;;;;6.90;6.10;;;;;;;;;;4988215;28;20227;-69
2024/03/22 08:55:29;;;;;;;8.50;6.37;;;15.60;68.00;;;;;;4985372;28;20625;-65
2024/03/22 08:57:56;;;;;;;15.27;6.57;;;;;;;;;;4975161;28;20210;-62
2024/03/22 09:00:22;;;;;;;7.73;6.30;;;16.00;62.80;;;;;;4985714;28;20292;-70
2024/03/22 09:02:49;;;;;;;5.77;5.27;;;;;;;;;;4985549;28;20236;-68
2024/03/22 09:05:15;;;;;;;7.33;6.13;;;15.90;90.30;;;;;;4982547;28;20291;-67
2024/03/22 09:07:42;;;;;;;6.23;5.63;;;16.10;89.10;;;;;;4966553;28;20316;-63
2024/03/22 09:10:08;;;;;;;6.73;6.10;;;;;;;;;;4978442;28;20208;-72
2024/03/22 09:12:34;;;;;;;7.07;6.37;;;16.30;59.30;;;;;;4981993;28;20224;-70
2024/03/22 09:15:01;;;;;;;8.10;6.30;;;16.30;43.60;;;;;;4983015;28;20246;-67
2024/03/22 09:17:29;;;;;;;6.83;5.80;;;16.40;49.20;;;;;;4965478;28;20226;-66
2024/03/22 09:19:54;;;;;;;6.40;5.40;;;16.60;43.90;;;;;;4978756;28;20208;-68
2024/03/22 09:22:21;;;;;;;6.80;5.20;;;16.80;44.40;;;;;;4983516;28;20702;-66
2024/03/22 09:24:47;;;;;;;7.50;4.73;;;16.90;43.00;;;;;;4985104;28;20674;-65
2024/03/22 09:27:14;;;;;;;6.03;4.90;;;16.80;42.60;;;;;;4989903;28;20206;-66
2024/03/22 09:29:39;;;;;;;5.57;5.00;;;16.70;42.20;;;;;;4990091;28;20679;-67
2024/03/22 09:32:06;;;;;;;5.40;4.90;;;;;;;;;;4986229;28;20223;-63
2024/03/22 09:34:32;;;;;;;7.07;4.67;;;;;;;;;;4977630;28;20303;-69
2024/03/22 09:36:59;;;;;;;5.93;4.40;;;18.60;68.80;;;;;;4991546;28;20203;-66
2024/03/22 09:39:27;;;;;;;5.63;4.47;;;;;;;;;;4975711;28;20213;-67
2024/03/22 09:41:54;;;;;;;6.83;4.50;;;;;;;;;;4987009;28;20216;-67
2024/03/22 09:44:20;;;;;;;5.53;4.23;;;;;;;;;;4991160;28;20252;-67
2024/03/22 09:46:48;;;;;;;7.33;4.93;;;;;;;;;;4988796;28;20194;-67
2024/03/22 09:49:14;;;;;;;5.07;4.57;;;17.70;56.40;;;;;;4969907;28;20298;-67
2024/03/22 09:51:40;;;;;;;5.63;5.00;;;17.90;45.90;;;;;;4977802;28;20317;-66
2024/03/22 09:54:06;;;;;;;5.47;4.30;;;17.70;43.70;;;;;;4979174;28;20355;-65
2024/03/22 09:56:32;;;;;;;7.30;4.10;;;17.50;44.60;;;;;;4995452;28;20567;-65
2024/03/22 09:58:58;;;;;;;4.37;3.97;;;17.80;45.30;;;;;;4989485;28;20208;-66
2024/03/22 10:01:25;;;;;;;5.40;4.83;;;17.70;44.40;;;;;;4982681;28;20223;-66
2024/03/22 10:03:50;;;;;;;5.87;4.73;;;17.60;44.90;;;;;;4984471;28;20215;-66
2024/03/22 10:06:17;;;;;;;7.03;4.67;;;17.50;46.50;;;;;;4995436;28;20234;-67
2024/03/22 10:08:42;;;;;;;6.33;4.77;;;17.70;46.70;;;;;;4980679;28;20660;-66
2024/03/22 10:11:09;;;;;;;4.73;4.10;;;17.70;46.40;;;;;;4971029;28;20295;-67
2024/03/22 10:13:35;;;;;;;7.07;4.07;;;17.70;48.10;;;;;;4986776;28;20299;-64
2024/03/22 10:16:02;;;;;;;7.00;4.53;;;17.90;49.90;;;;;;4985949;28;20314;-64
2024/03/22 10:18:27;;;;;;;4.80;3.93;;;18.10;47.10;;;;;;4987389;28;20250;-64
2024/03/22 10:20:54;;;;;;;6.90;4.43;;;18.10;51.70;;;;;;4992580;28;20230;-64
2024/03/22 10:23:19;;;;;;;6.60;4.00;;;18.10;47.10;;;;;;4984653;28;20228;-65
2024/03/22 10:25:46;;;;;;;4.57;3.67;;;18.20;46.80;;;;;;4986918;28;20199;-62
2024/03/22 10:28:12;;;;;;;4.77;4.23;;;18.10;64.30;;;;;;4979923;28;20678;-62
2024/03/22 10:30:38;;;;;;;4.80;4.30;;;17.80;63.70;;;;;;4987527;28;20203;-64
2024/03/22 10:33:04;;;;;;;4.80;4.40;;;17.70;63.40;;;;;;4989716;28;20315;-63
2024/03/22 10:35:30;;;;;;;6.23;4.30;;;17.70;63.70;;;;;;4983003;28;20316;-63
2024/03/22 10:37:56;;;;;;;5.80;4.33;;;17.40;54.20;;;;;;4992252;28;20204;-65
2024/03/22 10:40:22;;;;;;;4.77;4.27;;;17.40;54.50;;;;;;4981681;28;20207;-65
2024/03/22 10:42:48;;;;;;;5.80;4.37;;;17.70;54.50;;;;;;4991836;28;20227;-66
2024/03/22 10:45:15;;;;;;;6.10;4.43;;;17.50;55.00;;;;;;4992014;28;20288;-65
2024/03/22 10:47:40;;;;;;;9.23;4.57;;;17.70;55.90;;;;;;4979392;28;20210;-64
2024/03/22 10:50:07;;;;;;;6.30;4.83;;;18.10;55.30;;;;;;4981908;28;20205;-64
2024/03/22 10:52:32;;;;;;;6.27;4.40;;;18.00;55.30;;;;;;4986851;28;20227;-64
2024/03/22 10:54:59;;;;;;;5.00;4.53;;;18.10;55.90;;;;;;4981717;28;20569;-64
2024/03/22 10:57:24;;;;;;;5.30;4.40;;;18.10;55.30;;;;;;4984704;28;20580;-65
2024/03/22 10:59:51;;;;;;;10.40;4.43;;;18.10;56.20;;;;;;4975771;28;20204;-65
2024/03/22 11:02:17;;;;;;;5.17;4.10;;;18.10;55.90;;;;;;4987155;28;20624;-65
2024/03/22 11:04:43;;;;;;;5.73;3.70;;;18.20;73.00;;;;;;4987181;28;20294;-67
2024/03/22 11:07:10;;;;;;;5.23;3.87;;;;;;;;;;4986175;28;20220;-67
2024/03/22 11:09:37;;;;;;;5.03;4.17;;;18.60;37.30;;;;;;4985080;28;20206;-67
2024/03/22 11:12:02;;;;;;;4.37;3.97;;;19.00;37.30;;;;;;4987245;28;20239;-67
2024/03/22 11:14:29;;;;;;;5.57;3.70;;;19.30;37.50;;;;;;4967831;28;20243;-66
2024/03/22 11:16:55;;;;;;;5.10;4.13;;;20.00;35.40;;;;;;4976903;28;20204;-64
2024/03/22 11:19:22;;;;;;;5.68;4.45;;;;;;;;;;4984910;28;20290;-66
2024/03/22 11:21:47;;;;;;;4.78;4.22;;;19.80;79.20;;;;;;4983198;28;20225;-69
2024/03/22 11:24:14;;;;;;;4.38;3.90;;;19.80;49.50;;;;;;4991872;28;20254;-66
2024/03/22 11:26:40;;;;;;;4.43;3.42;;;19.90;46.30;;;;;;4988056;28;20210;-66
2024/03/22 11:29:08;;;;;;;5.25;3.65;;;19.50;47.30;;;;;;4993370;28;20195;-65
2024/03/22 11:31:33;;;;;;;5.93;4.20;;;19.70;55.00;;;;;;4994115;28;20654;-65
2024/03/22 11:34:00;;;;;;;6.07;4.05;;;19.10;50.10;;;;;;4981112;28;20533;-66
2024/03/22 11:36:25;;;;;;;5.33;4.20;;;18.90;47.20;;;;;;4989462;28;20512;-65
2024/03/22 11:38:53;;;;;;;5.53;4.27;;;18.70;47.60;;;;;;4995915;28;20297;-66
2024/03/22 11:41:18;;;;;;;4.03;3.63;;;18.80;46.60;;;;;;4997725;28;20211;-65
2024/03/22 11:43:45;;;;;;;5.37;4.50;;;18.80;49.00;;;;;;4989242;28;20210;-64
2024/03/22 11:46:11;;;;;;;5.17;4.07;;;18.80;50.30;;;;;;4988962;28;20222;-66
2024/03/22 11:48:38;;;;;;;4.60;4.00;;;18.80;49.90;;;;;;4994463;28;20203;-65
2024/03/22 11:51:03;;;;;;;4.80;4.40;;;18.80;50.20;;;;;;4987913;28;20211;-61
2024/03/22 11:53:30;;;;;;;4.33;3.93;;;18.70;49.80;;;;;;4987874;28;20581;-65
2024/03/22 11:55:56;;;;;;;5.27;4.53;;;18.80;49.70;;;;;;4988227;28;20226;-64
2024/03/22 11:58:22;;;;;;;4.83;4.10;;;18.60;49.40;;;;;;4987641;28;20207;-65
2024/03/22 12:00:48;;;;;;;4.70;4.30;;;18.50;50.60;;;;;;4998762;28;20204;-64
2024/03/22 12:03:14;;;;;;;5.00;4.00;;;18.60;51.00;;;;;;4990107;28;20598;-68
2024/03/22 12:05:40;;;;;;;5.40;4.03;;;18.80;50.30;;;;;;4987253;28;20302;-65
2024/03/22 12:08:06;;;;;;;5.37;3.90;;;18.80;49.30;;;;;;4992735;28;20285;-67
2024/03/22 12:10:32;;;;;;;5.37;4.40;;;18.80;48.60;;;;;;4991786;28;20233;-65
2024/03/22 12:12:59;;;;;;;4.67;4.20;;;18.80;48.20;;;;;;4988784;28;20323;-67
2024/03/22 12:15:24;;;;;;;5.53;4.50;;;18.50;49.80;;;;;;4990149;28;20213;-65
2024/03/22 12:17:51;;;;;;;16.47;10.77;;;18.50;48.80;;;;;;4988527;28;20216;-70
2024/03/22 12:20:16;;;;;;;5.73;5.13;;;18.30;53.30;;;;;;4987964;28;20232;-64
2024/03/22 12:22:43;;;;;;;8.13;6.00;;;17.90;40.20;;;;;;4990988;28;20272;-65
2024/03/22 12:25:09;;;;;;;5.33;4.60;;;17.90;40.10;;;;;;4992093;28;20210;-60
2024/03/22 12:27:36;;;;;;;4.77;4.37;;;17.90;39.10;;;;;;4988694;28;20221;-57
2024/03/22 12:30:02;;;;;;;5.00;4.30;;;18.60;38.10;;;;;;4990287;28;20255;-57
2024/03/22 12:32:29;;;;;;;6.33;4.37;;;18.90;37.80;;;;;;4987785;28;20223;-59
2024/03/22 12:34:54;;;;;;;4.83;3.97;;;19.10;37.40;;;;;;4985255;28;20219;-60
2024/03/22 12:37:21;;;;;;;6.45;4.43;;;19.00;37.20;;;;;;4991752;28;20570;-60
2024/03/22 12:39:47;;;;;;;4.32;4.00;;;18.70;36.80;;;;;;4985439;28;20204;-59